Portada
METAR-TAF:

METAR-TAF

Aeroports :

Trat, Tailàndia

latitud: 12-16-28N, longitud: 102-19-08E, altitud: 32 m

Observació

L'informe es va fer fa 1 hora i 13 minuts, a les 01:00 UTC
Vent 3 kt del Nord/Nord-Est
Temperatura 24°C
Humitat 74%
Pressió 1015 hPa
Visibilitat: 6000 m

METAR: VTBO 130100Z 02003KT 6000 NSC 24/19 Q1015

Hora: 09:13 (02:13 UTC)

Pronòstic

L'informe es va fer fa 3 hores i 13 minuts, a les 23:00 UTC
Pronòstic vàlid del 13 a les 00 UTC al 13 a les 24 UTC
Vent 5 kt del Est/Nord-Est
Visibilitat: 8000 m

TAF: VTBO 122300Z 1300/1324 06005KT 8000 NSC

Observacions i pronòstics meteorològics de més de 4000 aeroports (METAR i TAF).

Les estacions disponibles són els punts grocs i vermells al mapa.

Posi el ratolí al punt desitjat per veure el nom de l'estació.

Feu clic per veure les observacions i els pronòstics meteorològics.

Per canviar el mapa: feu clic els botons verds amb una creu de color negre per apropar; al botó verd amb un guió per allunyar la imatge; o en les fletxes verdes per a mapes adjacents.


METAR-TAF: